Time;durP1;ratioP1;P1;durP2;ratioP2;P2;SDS_P1;SDS_P2;PMS_P1;PMS_P2;Temp;Humidity;BMP_temperature;BMP_pressure;BME280_temperature;BME280_humidity;BME280_pressure;Samples;Min_cycle;Max_cycle;Signal;HPM_P1;HPM_P2
2022/08/12 00:44:36;;;;;;;5.80;2.10;;;;;;;26.15;95.64;101828.00;5096674;28;20028;-57
2022/08/12 00:47:01;;;;;;;;;;;;;;;26.10;96.46;101825.28;5095750;28;20052;-56
2022/08/12 00:49:29;;;;;;;5.70;1.95;;;;;;;26.13;97.45;101828.31;5096628;28;19980;-57
2022/08/12 00:52:10;;;;;;;4.93;2.23;;;;;;;26.10;98.56;101823.38;5091400;28;20033;-57
2022/08/12 00:54:43;;;;;;;8.67;3.60;;;;;;;25.99;100.00;101825.31;5090442;28;20024;-57
2022/08/12 00:57:22;;;;;;;8.70;3.50;;;;;;;25.89;100.00;101826.16;5089920;28;20052;-58
2022/08/12 00:59:57;;;;;;;7.10;2.67;;;;;;;25.99;100.00;101829.97;5091066;28;20021;-57
2022/08/12 01:02:32;;;;;;;7.23;2.13;;;;;;;25.92;100.00;101825.59;5094937;28;20031;-58
2022/08/12 01:13:23;;;;;;;4.43;2.45;;;;;;;25.74;100.00;101828.88;5088796;28;20039;-58
2022/08/12 01:15:53;;;;;;;5.37;2.50;;;;;;;25.62;100.00;101821.78;5093555;28;20062;-57
2022/08/12 01:18:22;;;;;;;10.27;2.07;;;;;;;25.71;100.00;101819.28;5090624;28;20029;-57
2022/08/12 01:20:50;;;;;;;8.43;2.70;;;;;;;25.53;100.00;101820.66;5097464;28;20032;-57
2022/08/12 01:23:25;;;;;;;6.13;3.03;;;;;;;25.52;100.00;101821.78;5093792;28;20035;-56
2022/08/12 01:25:54;;;;;;;4.50;2.30;;;;;;;25.58;100.00;101823.41;5092960;28;20033;-59
2022/08/12 01:28:22;;;;;;;5.43;2.53;;;;;;;25.45;100.00;101818.47;5088711;28;20056;-59
2022/08/12 01:30:49;;;;;;;4.87;2.67;;;;;;;25.59;100.00;101819.56;5094796;28;20122;-58
2022/08/12 01:33:17;;;;;;;4.30;2.10;;;;;;;25.42;100.00;101813.53;5097289;28;20043;-59
2022/08/12 01:35:59;;;;;;;7.37;2.40;;;;;;;25.27;100.00;101812.41;5094867;28;20028;-58
2022/08/12 01:38:28;;;;;;;7.83;2.33;;;;;;;25.25;100.00;101820.06;5099754;28;20116;-58
2022/08/12 01:40:57;;;;;;;5.70;2.10;;;;;;;25.15;100.00;101814.59;5098909;28;20086;-57
2022/08/12 01:43:24;;;;;;;7.53;2.57;;;;;;;25.16;100.00;101817.03;5100901;28;20044;-57
2022/08/12 01:46:21;;;;;;;7.17;2.93;;;;;;;25.19;100.00;101816.50;5093862;28;20032;-58
2022/08/12 01:49:14;;;;;;;6.65;2.95;;;;;;;24.99;100.00;101817.28;5055506;28;20040;-58
2022/08/12 01:51:42;;;;;;;4.90;2.57;;;;;;;25.04;100.00;101808.28;5087208;28;20100;-58
2022/08/12 01:54:12;;;;;;;3.53;2.27;;;;;;;25.14;100.00;101807.44;5091891;28;20074;-58
2022/08/12 01:56:47;;;;;;;4.07;2.43;;;;;;;25.04;100.00;101808.28;5091832;28;20043;-58
2022/08/12 02:02:13;;;;;;;10.33;2.33;;;;;;;25.17;100.00;101805.00;5094548;28;20028;-58
2022/08/12 02:11:23;;;;;;;7.30;2.70;;;;;;;24.98;100.00;101801.13;5092340;28;20033;-61
2022/08/12 02:14:30;;;;;;;8.77;2.70;;;;;;;25.00;100.00;101802.50;5096451;28;20045;-59
2022/08/12 02:17:17;;;;;;;6.83;3.00;;;;;;;24.90;100.00;101791.53;5095547;28;20032;-59
2022/08/12 02:19:55;;;;;;;6.72;2.67;;;;;;;24.75;100.00;101801.34;5093429;28;20055;-59
2022/08/12 02:22:33;;;;;;;5.67;2.60;;;;;;;24.80;100.00;101802.47;5091643;28;20032;-59
2022/08/12 02:25:12;;;;;;;5.13;2.43;;;;;;;24.83;100.00;101796.44;5096005;28;20043;-58
2022/08/12 02:27:46;;;;;;;6.07;2.90;;;;;;;24.80;100.00;101799.72;5088449;28;20040;-59
2022/08/12 02:30:19;;;;;;;5.53;2.57;;;;;;;24.75;100.00;101801.34;5092638;28;20032;-59
2022/08/12 02:32:48;;;;;;;5.23;2.70;;;;;;;24.85;100.00;101795.09;5094715;28;20032;-59
2022/08/12 02:35:18;;;;;;;8.23;3.30;;;;;;;24.66;100.00;101788.44;5096908;28;20044;-59
2022/08/12 02:37:45;;;;;;;9.40;3.13;;;;;;;24.59;100.00;101780.47;5093206;28;20029;-59
2022/08/12 02:40:12;;;;;;;11.40;2.70;;;;;;;24.59;100.00;101773.09;5098510;28;20027;-59
2022/08/12 02:42:52;;;;;;;5.27;2.57;;;;;;;24.54;100.00;101775.00;5092913;28;20112;-60
2022/08/12 02:45:24;;;;;;;7.37;2.73;;;;;;;24.60;100.00;101774.75;5090454;28;20038;-59
2022/08/12 02:47:53;;;;;;;4.43;2.53;;;;;;;24.60;100.00;101779.38;5094815;28;20042;-58
2022/08/12 02:50:21;;;;;;;7.80;3.10;;;;;;;24.46;100.00;101781.78;5076237;28;20047;-60
2022/08/12 02:52:51;;;;;;;4.57;2.60;;;;;;;24.45;100.00;101775.53;5092601;28;20068;-60
2022/08/12 02:55:20;;;;;;;4.50;2.40;;;;;;;24.53;100.00;101776.09;5096430;28;20058;-58
2022/08/12 02:57:46;;;;;;;6.43;3.00;;;;;;;24.62;100.00;101779.94;5091221;28;20088;-59
2022/08/12 03:00:17;;;;;;;6.03;3.27;;;;;;;24.41;100.00;101768.91;5093801;28;20028;-59
2022/08/12 03:02:50;;;;;;;7.50;2.67;;;;;;;24.38;100.00;101772.19;5099310;28;20037;-59
2022/08/12 03:05:22;;;;;;;6.37;2.63;;;;;;;24.18;100.00;101767.47;5092459;28;20058;-59
2022/08/12 03:07:52;;;;;;;7.47;2.73;;;;;;;24.24;100.00;101773.78;5090984;28;20060;-60
2022/08/12 03:10:21;;;;;;;5.97;2.70;;;;;;;24.17;100.00;101771.28;5090487;28;20039;-59
2022/08/12 03:12:56;;;;;;;7.37;2.57;;;;;;;24.32;100.00;101768.59;5096001;28;20035;-58
2022/08/12 03:15:26;;;;;;;7.40;2.87;;;;;;;24.19;100.00;101769.09;5091469;28;20063;-59
2022/08/12 03:18:07;;;;;;;8.20;2.90;;;;;;;24.20;100.00;101766.09;5093689;28;20028;-59
2022/08/12 03:20:39;;;;;;;5.87;3.03;;;;;;;24.18;100.00;101781.94;5096229;28;20031;-59
2022/08/12 03:23:10;;;;;;;8.63;3.20;;;;;;;24.15;100.00;101778.91;5097554;28;20052;-59
2022/08/12 03:25:40;;;;;;;8.90;3.20;;;;;;;24.10;100.00;101774.25;5094710;28;20033;-60
2022/08/12 03:28:11;;;;;;;7.47;3.10;;;;;;;23.91;100.00;101776.56;5094250;28;20059;-59
2022/08/12 03:30:41;;;;;;;9.70;3.23;;;;;;;23.86;100.00;101784.69;5094270;28;20032;-59
2022/08/12 03:33:11;;;;;;;9.60;3.10;;;;;;;23.84;100.00;101784.13;5097145;28;20099;-60
2022/08/12 03:35:41;;;;;;;5.73;3.10;;;;;;;23.89;100.00;101781.47;5088993;28;20042;-59
2022/08/12 03:38:10;;;;;;;5.93;3.73;;;;;;;23.73;100.00;101775.06;5086906;28;20045;-59
2022/08/12 04:00:52;;;;;;;23.20;10.77;;;;;;;23.59;100.00;101771.94;5079934;28;20112;-60
2022/08/12 04:06:03;;;;;;;24.30;11.53;;;;;;;23.74;100.00;101772.06;5071036;28;20425;-61
2022/08/12 04:08:29;;;;;;;23.55;12.35;;;;;;;23.65;100.00;101772.81;5076530;28;20037;-60
2022/08/12 04:13:39;;;;;;;9.97;3.60;;;;;;;23.64;100.00;101771.97;5075494;28;20040;-60
2022/08/12 04:16:09;;;;;;;8.40;4.50;;;;;;;23.54;100.00;101775.47;5076714;28;20060;-59
2022/08/12 04:18:37;;;;;;;10.83;4.87;;;;;;;23.42;100.00;101772.09;5078490;28;20063;-59
2022/08/12 04:21:08;;;;;;;10.37;5.13;;;;;;;23.43;100.00;101769.13;5074860;28;20108;-59
2022/08/12 04:23:37;;;;;;;10.70;3.83;;;;;;;23.33;100.00;101772.56;5064413;28;20052;-60
2022/08/12 04:26:04;;;;;;;11.70;5.00;;;;;;;23.44;100.00;101778.94;5076924;28;20065;-57
2022/08/12 04:28:30;;;;;;;7.70;4.03;;;;;;;23.46;100.00;101767.75;5075921;28;20100;-58
2022/08/12 04:30:56;;;;;;;11.07;4.45;;;;;;;23.51;100.00;101766.97;5074047;28;20044;-60
2022/08/12 04:33:22;;;;;;;9.32;4.95;;;;;;;23.54;100.00;101772.75;5071939;28;20033;-59
2022/08/12 04:35:48;;;;;;;9.27;5.50;;;;;;;23.53;100.00;101773.00;5078174;28;20040;-57
2022/08/12 04:38:15;;;;;;;9.25;4.13;;;;;;;23.55;100.00;101768.94;5073492;28;20032;-59
2022/08/12 04:40:41;;;;;;;9.37;4.10;;;;;;;23.42;100.00;101763.91;5077442;28;20035;-60
2022/08/12 04:43:08;;;;;;;14.15;5.93;;;;;;;23.42;100.00;101772.09;5080498;28;20048;-60
2022/08/12 04:45:37;;;;;;;10.33;4.20;;;;;;;23.40;100.00;101766.88;5079296;28;20044;-60
2022/08/12 04:48:05;;;;;;;5.47;3.83;;;;;;;23.30;100.00;101766.81;5079390;28;20078;-60
2022/08/12 04:50:31;;;;;;;11.40;4.93;;;;;;;23.51;100.00;101767.78;5083363;28;20031;-59
2022/08/12 04:53:00;;;;;;;;;;;;;;;23.52;100.00;101771.34;5084261;28;20036;-59
2022/08/12 04:55:26;;;;;;;10.07;4.43;;;;;;;23.53;100.00;101765.66;5083874;28;19912;-58
2022/08/12 04:57:53;;;;;;;8.77;3.67;;;;;;;23.56;100.00;101773.31;5080337;28;20096;-59
2022/08/12 05:00:19;;;;;;;8.53;4.40;;;;;;;23.45;100.00;101768.84;5077927;28;20040;-60
2022/08/12 05:02:44;;;;;;;11.43;5.70;;;;;;;23.38;100.00;101774.50;5078788;28;20029;-59
2022/08/12 05:05:21;;;;;;;11.50;5.05;;;;;;;23.44;100.00;101772.66;5079515;28;20056;-59
2022/08/12 05:07:48;;;;;;;9.20;3.97;;;;;;;23.43;100.00;101779.19;5078782;28;20036;-59
2022/08/12 05:10:15;;;;;;;6.33;3.53;;;;;;;23.44;100.00;101778.94;5081848;28;20029;-59
2022/08/12 05:12:45;;;;;;;6.13;3.70;;;;;;;23.44;100.00;101778.94;5082891;28;20033;-59
2022/08/12 05:15:13;;;;;;;8.73;3.30;;;;;;;23.41;100.00;101774.00;5080697;28;20039;-59
2022/08/12 05:17:40;;;;;;;10.23;4.53;;;;;;;23.43;100.00;101780.03;5081501;28;20043;-59
2022/08/12 05:20:14;;;;;;;6.83;3.97;;;;;;;23.51;100.00;101773.25;5069168;28;20053;-60
2022/08/12 05:22:40;;;;;;;6.97;3.60;;;;;;;23.55;100.00;101779.84;5070988;28;20033;-60
2022/08/12 05:25:06;;;;;;;11.65;3.90;;;;;;;23.52;100.00;101782.28;5070798;28;20063;-60
2022/08/12 05:27:33;;;;;;;6.53;4.03;;;;;;;23.49;100.00;101780.88;5071634;28;20033;-59
2022/08/12 05:29:58;;;;;;;;;;;;;;;23.40;100.00;101777.00;5074156;28;20037;-59
2022/08/12 05:32:24;;;;;;;8.17;3.90;;;;;;;23.46;100.00;101765.84;5071763;28;19936;-58
2022/08/12 05:34:51;;;;;;;;;;;;;;;23.49;100.00;101781.72;5067228;28;20025;-59
2022/08/12 05:37:17;;;;;;;7.75;3.92;;;;;;;23.51;100.00;101778.69;5072980;28;19923;-59
2022/08/12 05:39:42;;;;;;;8.25;3.72;;;;;;;23.48;100.00;101776.50;5074316;28;20028;-59
2022/08/12 05:42:08;;;;;;;7.53;3.45;;;;;;;23.57;100.00;101780.41;5084854;28;20029;-59
2022/08/12 05:44:34;;;;;;;9.68;4.40;;;;;;;23.53;100.00;101786.66;5080799;28;20048;-59
2022/08/12 05:47:00;;;;;;;9.50;4.40;;;;;;;23.55;100.00;101790.78;5084241;28;20037;-59
2022/08/12 05:49:25;;;;;;;11.50;5.10;;;;;;;23.58;100.00;101783.94;5085870;28;20061;-61
2022/08/12 05:51:50;;;;;;;15.13;5.28;;;;;;;23.55;100.00;101785.31;5084772;28;20067;-59
2022/08/12 05:54:17;;;;;;;10.48;4.40;;;;;;;23.62;100.00;101796.81;5082705;28;20033;-59
2022/08/12 05:56:44;;;;;;;12.87;4.67;;;;;;;23.65;100.00;101797.38;5077805;28;20040;-59
2022/08/12 05:59:10;;;;;;;7.60;4.37;;;;;;;23.66;100.00;101796.31;5076352;28;20088;-60
2022/08/12 06:01:36;;;;;;;;;;;;;;;23.66;100.00;101793.56;5071846;28;20128;-59
2022/08/12 06:04:02;;;;;;;10.17;5.13;;;;;;;23.66;100.00;101804.50;5081285;28;19939;-61
2022/08/12 06:06:33;;;;;;;;;;;;;;;23.65;100.00;101800.13;5080533;28;20093;-59
2022/08/12 06:08:59;;;;;;;26.77;4.30;;;;;;;23.78;100.00;101802.41;5075524;28;19923;-60
2022/08/12 06:11:25;;;;;;;8.27;3.78;;;;;;;23.94;100.00;101805.25;5080165;28;20049;-59
2022/08/12 06:13:52;;;;;;;8.00;4.13;;;;;;;23.87;100.00;101802.72;5082875;28;20043;-61
2022/08/12 06:16:20;;;;;;;9.63;3.90;;;;;;;23.97;100.00;101804.72;5080926;28;20040;-59
2022/08/12 06:18:46;;;;;;;8.27;3.43;;;;;;;24.06;100.00;101805.91;5080989;28;20171;-60
2022/08/12 06:21:14;;;;;;;8.07;4.10;;;;;;;24.09;100.00;101805.38;5076371;28;20029;-60
2022/08/12 06:23:41;;;;;;;6.27;3.87;;;;;;;24.19;100.00;101805.44;5054234;28;20029;-59
2022/08/12 06:26:10;;;;;;;10.97;4.40;;;;;;;24.27;100.00;101808.78;5072356;28;20030;-60
2022/08/12 06:28:38;;;;;;;10.17;4.57;;;;;;;24.29;100.00;101809.31;5081448;28;20024;-59
2022/08/12 06:31:05;;;;;;;8.90;4.17;;;;;;;24.24;100.00;101812.03;5079950;28;20067;-60
2022/08/12 06:33:32;;;;;;;9.73;4.63;;;;;;;24.31;100.00;101812.63;5079418;28;20044;-59
2022/08/12 06:35:58;;;;;;;13.50;4.87;;;;;;;24.36;100.00;101806.34;5077838;28;20029;-59
2022/08/12 06:38:25;;;;;;;9.00;4.67;;;;;;;24.40;100.00;101811.00;5082745;28;20033;-58
2022/08/12 06:43:42;;;;;;;10.50;4.47;;;;;;;24.49;100.00;101809.44;5091772;28;20041;-60
2022/08/12 06:46:10;;;;;;;14.43;5.30;;;;;;;24.59;100.00;101807.81;5093099;28;20059;-60
2022/08/12 06:48:36;;;;;;;7.73;4.20;;;;;;;24.60;100.00;101798.53;5086938;28;20050;-60
2022/08/12 06:51:02;;;;;;;10.02;4.85;;;;;;;24.48;100.00;101806.94;5090114;28;20092;-59
2022/08/12 06:53:31;;;;;;;11.20;5.17;;;;;;;24.62;100.00;101801.81;5091131;28;20096;-58
2022/08/12 06:55:59;;;;;;;7.83;3.83;;;;;;;24.79;100.00;101803.56;5094312;28;20094;-59
2022/08/12 06:58:29;;;;;;;8.10;3.47;;;;;;;24.88;100.00;101801.94;5091033;28;20040;-59
2022/08/12 07:00:56;;;;;;;15.57;5.30;;;;;;;24.92;100.00;101795.66;5088883;28;20076;-60
2022/08/12 07:03:27;;;;;;;7.90;3.90;;;;;;;24.95;100.00;101799.78;5099705;28;20052;-57
2022/08/12 07:06:05;;;;;;;10.30;5.23;;;;;;;25.03;100.00;101790.22;5095171;28;20063;-48
2022/08/12 07:08:33;;;;;;;11.00;4.83;;;;;;;25.05;100.00;101793.50;5096753;28;20092;-47
2022/08/12 07:11:01;;;;;;;9.30;5.17;;;;;;;25.11;100.00;101797.88;5086557;28;20036;-48
2022/08/12 07:13:36;;;;;;;13.97;4.60;;;;;;;25.16;100.00;101803.34;5095642;28;20036;-45
2022/08/12 07:16:02;;;;;;;11.83;4.90;;;;;;;25.17;100.00;101798.72;5092893;28;20036;-46
2022/08/12 07:18:31;;;;;;;9.43;4.40;;;;;;;25.22;100.00;101798.72;5088407;28;20097;-47
2022/08/12 07:21:00;;;;;;;16.47;4.83;;;;;;;25.18;100.00;101797.63;5084081;28;20104;-47
2022/08/12 07:23:27;;;;;;;10.53;4.90;;;;;;;25.31;100.00;101808.03;5091550;28;20093;-46
2022/08/12 07:25:53;;;;;;;11.37;5.30;;;;;;;25.35;100.00;101803.66;5090912;28;20043;-49
2022/08/12 07:28:26;;;;;;;11.27;4.93;;;;;;;25.43;100.00;101809.69;5091203;28;20035;-45
2022/08/12 07:30:53;;;;;;;10.30;4.13;;;;;;;25.56;100.00;101806.44;5091219;28;20034;-46
2022/08/12 07:33:24;;;;;;;12.90;4.43;;;;;;;25.59;100.00;101805.06;5094990;28;20043;-50
2022/08/12 07:35:53;;;;;;;9.97;4.53;;;;;;;25.73;100.00;101805.34;5094443;28;20058;-48
2022/08/12 07:38:24;;;;;;;7.47;4.17;;;;;;;25.82;100.00;101808.34;5092810;28;20036;-43
2022/08/12 07:41:05;;;;;;;13.77;4.10;;;;;;;25.79;100.00;101809.69;5097215;28;20055;-45
2022/08/12 07:43:35;;;;;;;7.33;3.90;;;;;;;25.89;100.00;101812.44;5092535;28;20083;-48
2022/08/12 07:46:04;;;;;;;9.53;4.50;;;;;;;25.99;100.00;101813.53;5076122;28;20032;-49
2022/08/12 07:48:44;;;;;;;8.47;4.73;;;;;;;26.05;100.00;101810.50;5091886;28;20087;-45
2022/08/12 07:51:11;;;;;;;15.13;5.00;;;;;;;26.14;100.00;101810.75;5090640;28;20041;-46
2022/08/12 07:53:37;;;;;;;11.87;5.60;;;;;;;26.22;100.00;101814.03;5091489;28;20047;-49
2022/08/12 07:56:04;;;;;;;19.87;8.93;;;;;;;26.26;100.00;101821.44;5092770;28;20503;-44
2022/08/12 07:58:31;;;;;;;10.53;4.20;;;;;;;26.56;100.00;101822.44;5094647;28;20092;-46
2022/08/12 08:01:01;;;;;;;12.70;4.40;;;;;;;26.75;100.00;101821.81;5090120;28;20040;-46
2022/08/12 08:03:28;;;;;;;9.97;4.57;;;;;;;26.74;100.00;101826.47;5089169;28;20067;-45
2022/08/12 08:05:54;;;;;;;9.87;4.17;;;;;;;26.86;100.00;101825.34;5085491;28;20032;-46
2022/08/12 08:08:21;;;;;;;;;;;;;;;26.90;100.00;101823.69;5084277;28;20032;-45
2022/08/12 08:10:50;;;;;;;9.60;3.80;;;;;;;27.03;100.00;101834.03;5084253;28;19923;-46
2022/08/12 08:13:16;;;;;;;15.33;3.97;;;;;;;27.10;100.00;101835.66;5085812;28;20070;-48
2022/08/12 08:15:45;;;;;;;9.90;3.33;;;;;;;27.16;100.00;101840.00;5078850;28;20067;-46
2022/08/12 08:18:15;;;;;;;8.70;2.97;;;;;;;27.26;99.47;101833.63;5092500;28;20055;-45
2022/08/12 08:20:44;;;;;;;7.90;3.87;;;;;;;27.43;100.00;101828.56;5093226;28;20036;-47
2022/08/12 08:23:15;;;;;;;9.60;3.60;;;;;;;27.53;97.65;101838.66;5091891;28;20033;-46
2022/08/12 08:25:43;;;;;;;11.37;3.53;;;;;;;27.68;96.77;101828.63;5083232;28;20032;-46
2022/08/12 08:28:12;;;;;;;8.33;3.43;;;;;;;27.83;97.21;101833.19;5085397;28;20047;-47
2022/08/12 08:30:43;;;;;;;12.10;3.77;;;;;;;27.92;99.43;101839.69;5081404;28;20063;-45
2022/08/12 08:33:10;;;;;;;8.30;3.37;;;;;;;28.09;97.57;101825.50;5085639;28;20096;-49
2022/08/12 08:35:38;;;;;;;11.10;4.20;;;;;;;28.24;94.57;101838.28;5083057;28;20040;-45
2022/08/12 08:38:12;;;;;;;8.30;2.93;;;;;;;28.24;89.42;101840.25;5087617;28;20052;-47
2022/08/12 08:43:25;;;;;;;7.78;3.15;;;;;;;28.34;87.07;101843.69;5085200;28;20061;-48
2022/08/12 08:45:51;;;;;;;21.37;3.40;;;;;;;28.32;85.43;101843.16;5083823;28;20541;-44
2022/08/12 08:48:17;;;;;;;8.27;3.60;;;;;;;28.48;83.93;101845.72;5088423;28;20056;-48
2022/08/12 08:50:44;;;;;;;10.80;3.27;;;;;;;28.47;80.90;101852.34;5085059;28;20119;-50
2022/08/12 08:53:10;;;;;;;9.40;3.60;;;;;;;28.54;80.30;101846.47;5089835;28;20029;-52
2022/08/12 08:55:35;;;;;;;8.50;3.30;;;;;;;28.71;80.33;101840.50;5088147;28;20059;-52
2022/08/12 08:58:00;;;;;;;9.40;3.10;;;;;;;28.75;80.29;101844.31;5087628;28;20040;-49
2022/08/12 09:00:28;;;;;;;16.48;5.00;;;;;;;28.82;79.12;101835.69;5084850;28;20088;-51
2022/08/12 09:02:54;;;;;;;11.15;2.92;;;;;;;28.98;76.44;101839.06;5066686;28;20092;-50
2022/08/12 09:05:19;;;;;;;10.15;3.08;;;;;;;29.17;75.52;101848.13;5085534;28;20037;-48
2022/08/12 09:07:48;;;;;;;7.90;4.73;;;;;;;29.36;72.59;101847.31;5090868;28;20032;-54
2022/08/12 09:10:18;;;;;;;16.48;3.45;;;;;;;29.57;72.77;101847.84;5087528;28;20043;-49
2022/08/12 09:15:34;;;;;;;13.70;3.40;;;;;;;29.93;66.53;101840.06;5085131;28;20040;-50
2022/08/12 09:18:04;;;;;;;7.75;2.90;;;;;;;30.08;64.50;101841.72;5084095;28;20036;-52
2022/08/12 09:20:34;;;;;;;12.45;3.17;;;;;;;30.24;63.20;101845.84;5080217;28;20028;-48
2022/08/12 09:23:04;;;;;;;5.50;2.42;;;;;;;30.47;59.97;101841.25;5085511;28;20127;-51
2022/08/12 09:25:30;;;;;;;6.80;2.88;;;;;;;30.78;57.38;101841.75;5083897;28;20033;-48
2022/08/12 09:28:00;;;;;;;14.27;2.97;;;;;;;31.27;57.02;101839.28;5083770;28;20040;-47
2022/08/12 09:30:26;;;;;;;8.57;2.47;;;;;;;31.77;54.36;101840.28;5084412;28;20040;-50
2022/08/12 09:32:53;;;;;;;8.35;2.60;;;;;;;32.11;51.11;101831.34;5066864;28;20067;-48
2022/08/12 09:35:24;;;;;;;10.60;2.63;;;;;;;32.70;48.16;101835.75;5085587;28;20043;-46
2022/08/12 09:37:53;;;;;;;14.50;3.38;;;;;;;33.40;46.42;101843.28;5083684;28;20032;-50
2022/08/12 09:40:20;;;;;;;9.80;2.78;;;;;;;33.96;45.07;101844.50;5090234;28;20028;-50
2022/08/12 09:45:32;;;;;;;11.48;2.70;;;;;;;35.14;41.90;101849.53;5086157;28;20087;-47
2022/08/12 09:48:02;;;;;;;6.53;2.20;;;;;;;35.81;38.88;101857.84;5085739;28;20053;-48
2022/08/12 09:50:31;;;;;;;7.75;2.30;;;;;;;35.99;38.45;101852.09;5086527;28;20032;-50
2022/08/12 09:53:07;;;;;;;6.82;2.42;;;;;;;36.80;36.00;101847.88;5088083;28;20032;-47
2022/08/12 09:55:34;;;;;;;8.07;2.08;;;;;;;37.30;34.78;101849.31;5084468;28;20043;-48
2022/08/12 09:58:00;;;;;;;6.63;2.58;;;;;;;37.83;33.87;101853.94;5084242;28;20084;-50
2022/08/12 10:00:26;;;;;;;8.65;2.17;;;;;;;38.69;32.71;101854.34;5075327;28;20100;-47
2022/08/12 10:02:59;;;;;;;10.25;2.30;;;;;;;39.14;31.28;101848.50;5090366;28;20048;-46
2022/08/12 10:05:25;;;;;;;9.80;2.50;;;;;;;39.21;30.35;101850.63;5088480;28;20037;-50
2022/08/12 10:07:50;;;;;;;7.32;2.20;;;;;;;39.63;28.71;101849.84;5091004;28;20048;-48
2022/08/12 10:10:16;;;;;;;7.65;2.20;;;;;;;39.86;30.36;101849.84;5089841;28;20075;-46
2022/08/12 10:15:28;;;;;;;5.93;2.38;;;;;;;40.77;26.93;101851.19;5087683;28;20032;-49
2022/08/12 10:17:54;;;;;;;6.10;2.28;;;;;;;40.88;26.97;101845.72;5084892;28;20028;-47
2022/08/12 10:20:19;;;;;;;5.20;1.77;;;;;;;40.64;27.74;101847.81;5086591;28;20049;-48
2022/08/12 10:22:56;;;;;;;5.78;2.25;;;;;;;40.91;27.43;101839.34;5085007;28;20089;-52
2022/08/12 10:30:51;;;;;;;5.63;1.85;;;;;;;42.04;24.77;101829.22;5087096;28;20639;-45
2022/08/12 10:33:16;;;;;;;7.25;1.90;;;;;;;42.42;24.24;101827.03;5092799;28;20064;-48
2022/08/12 10:35:42;;;;;;;5.97;2.20;;;;;;;42.63;24.41;101831.94;5095171;28;20045;-48
2022/08/12 10:38:10;;;;;;;5.10;2.35;;;;;;;42.77;23.21;101825.56;5093681;28;20044;-50
2022/08/12 10:43:39;;;;;;;8.32;1.98;;;;;;;42.46;23.66;101818.66;5095618;28;20449;-46
2022/08/12 10:43:41;;;;;;;5.90;2.00;;;;;;;42.17;22.35;101821.25;5082991;28;20053;-44
2022/08/12 10:46:16;;;;;;;4.38;1.67;;;;;;;42.63;22.55;101803.84;5081371;28;20044;-47
2022/08/12 10:48:46;;;;;;;8.13;1.88;;;;;;;42.81;21.81;101809.53;5078744;28;20041;-51
2022/08/12 10:51:19;;;;;;;12.93;2.15;;;;;;;43.01;22.34;101811.22;5062316;28;20033;-49
2022/08/12 10:53:45;;;;;;;5.47;2.05;;;;;;;43.07;22.71;101803.97;5078442;28;20036;-49
2022/08/12 10:56:16;;;;;;;3.00;1.52;;;;;;;43.34;21.06;101801.63;5058463;28;20067;-49
2022/08/12 10:58:43;;;;;;;7.25;1.92;;;;;;;43.56;21.94;101793.97;5079188;28;20033;-50
2022/08/12 11:01:09;;;;;;;11.93;1.75;;;;;;;43.56;22.48;101785.53;5074142;28;20035;-47
2022/08/12 11:03:40;;;;;;;7.07;2.03;;;;;;;43.96;21.22;101788.34;5067185;28;20037;-46
2022/08/12 11:06:08;;;;;;;8.95;2.03;;;;;;;44.50;20.57;101795.81;5073424;28;20037;-46
2022/08/12 11:08:36;;;;;;;4.50;1.60;;;;;;;44.76;20.37;101788.03;5077735;28;20044;-45
2022/08/12 11:11:07;;;;;;;4.20;1.70;;;;;;;44.56;21.88;101782.13;5075412;28;20051;-50
2022/08/12 11:13:34;;;;;;;3.85;1.70;;;;;;;45.03;19.74;101786.69;5078973;28;20104;-47
2022/08/12 11:16:00;;;;;;;7.50;1.80;;;;;;;45.12;19.46;101778.56;5074146;28;20029;-49
2022/08/12 11:18:26;;;;;;;5.22;1.90;;;;;;;45.05;19.13;101772.97;5079725;28;20049;-53
2022/08/12 11:20:53;;;;;;;8.95;1.65;;;;;;;45.30;21.08;101766.31;5074541;28;20060;-52
2022/08/12 11:23:20;;;;;;;4.60;1.70;;;;;;;46.05;19.28;101769.66;5075876;28;20033;-52
2022/08/12 11:25:49;;;;;;;7.35;1.70;;;;;;;46.72;18.19;101776.88;5081244;28;20088;-53
2022/08/12 11:28:15;;;;;;;5.15;1.38;;;;;;;46.92;18.06;101772.16;5072924;28;20037;-47
2022/08/12 11:30:41;;;;;;;5.93;1.80;;;;;;;47.49;18.95;101768.81;5074384;28;20031;-48
2022/08/12 11:33:08;;;;;;;9.63;2.28;;;;;;;47.60;17.99;101771.44;5078597;28;20036;-49
2022/08/12 11:35:40;;;;;;;6.47;1.85;;;;;;;47.74;17.99;101764.72;5080905;28;20043;-51
2022/08/12 11:38:05;;;;;;;7.32;1.60;;;;;;;47.86;17.18;101766.13;5080103;28;20033;-47
2022/08/12 11:40:31;;;;;;;8.35;1.70;;;;;;;47.93;17.60;101765.97;5085326;28;20052;-50
2022/08/12 11:42:59;;;;;;;4.70;1.63;;;;;;;47.95;18.03;101760.66;5087713;28;20055;-49
2022/08/12 11:45:28;;;;;;;6.10;1.60;;;;;;;47.98;18.26;101756.94;5077830;28;20043;-49
2022/08/12 11:47:55;;;;;;;5.10;1.90;;;;;;;48.39;16.82;101769.06;5073539;28;20033;-51
2022/08/12 11:50:22;;;;;;;2.75;1.70;;;;;;;48.55;16.82;101754.16;5074204;28;20036;-49
2022/08/12 11:52:49;;;;;;;4.70;2.05;;;;;;;48.68;17.20;101757.09;5087163;28;20058;-49
2022/08/12 11:55:16;;;;;;;8.00;2.08;;;;;;;48.78;17.41;101749.59;5091431;28;20031;-46
2022/08/12 11:57:55;;;;;;;5.63;2.30;;;;;;;48.86;16.91;101745.31;5090781;28;20070;-49
2022/08/12 12:00:22;;;;;;;5.43;1.73;;;;;;;48.82;18.02;101738.94;5089647;28;20123;-46
2022/08/12 12:02:48;;;;;;;8.15;1.70;;;;;;;49.19;16.64;101741.69;5069946;28;20028;-49
2022/08/12 12:05:15;;;;;;;6.88;2.30;;;;;;;49.49;16.56;101745.38;5082024;28;20056;-53
2022/08/12 12:07:44;;;;;;;7.57;2.00;;;;;;;49.56;16.26;101744.38;5089124;28;20024;-48
2022/08/12 12:10:12;;;;;;;4.32;1.92;;;;;;;50.08;15.96;101734.78;5088356;28;20120;-49
2022/08/12 12:12:37;;;;;;;5.65;1.70;;;;;;;49.70;16.34;101738.31;5090780;28;20024;-52
2022/08/12 12:15:05;;;;;;;4.22;1.70;;;;;;;49.18;17.01;101740.91;5094219;28;20028;-47
2022/08/12 12:17:37;;;;;;;4.57;1.92;;;;;;;49.67;15.41;101738.41;5093950;28;20044;-50
2022/08/12 12:20:08;;;;;;;9.05;1.80;;;;;;;48.82;15.34;101738.16;5093825;28;20114;-49
2022/08/12 12:22:36;;;;;;;9.63;2.08;;;;;;;48.04;15.74;101724.06;5090958;28;20099;-50
2022/08/12 12:25:02;;;;;;;5.18;1.70;;;;;;;48.76;16.05;101724.44;5091254;28;20093;-50
2022/08/12 12:27:43;;;;;;;6.15;1.58;;;;;;;49.04;16.85;101716.50;5093642;28;20029;-49
2022/08/12 12:30:09;;;;;;;4.88;1.73;;;;;;;49.50;15.40;101725.06;5090671;28;20093;-48
2022/08/12 12:32:34;;;;;;;6.38;1.88;;;;;;;50.11;14.70;101715.22;5089998;28;20032;-50
2022/08/12 12:35:00;;;;;;;4.15;1.75;;;;;;;50.61;14.58;101713.66;5086228;28;20093;-50
2022/08/12 12:37:26;;;;;;;4.13;1.83;;;;;;;50.75;14.20;101717.25;5076858;28;20025;-46
2022/08/12 12:39:52;;;;;;;4.30;1.80;;;;;;;50.95;14.31;101714.19;5085037;28;20042;-50
2022/08/12 12:42:17;;;;;;;7.20;1.90;;;;;;;50.48;15.79;101712.84;5082691;28;20058;-48
2022/08/12 12:44:43;;;;;;;9.20;1.65;;;;;;;50.54;15.60;101708.19;5095609;28;20040;-52
2022/08/12 12:47:08;;;;;;;7.10;1.60;;;;;;;50.50;15.27;101704.63;5092716;28;20060;-50
2022/08/12 12:49:34;;;;;;;6.45;2.13;;;;;;;50.47;15.30;101711.25;5095652;28;20036;-52
2022/08/12 12:51:59;;;;;;;6.22;1.73;;;;;;;50.82;14.87;101699.97;5092363;28;20055;-52
2022/08/12 12:54:24;;;;;;;2.75;1.92;;;;;;;51.44;15.16;101698.63;5093742;28;20039;-55
2022/08/12 12:56:53;;;;;;;5.88;1.67;;;;;;;51.65;15.21;101701.94;5097475;28;20028;-52
2022/08/12 12:59:22;;;;;;;2.83;1.80;;;;;;;51.14;15.94;101695.22;5089144;28;20029;-51
2022/08/12 13:01:49;;;;;;;5.25;1.88;;;;;;;51.27;14.97;101697.22;5094924;28;20032;-50
2022/08/12 13:04:15;;;;;;;3.63;1.55;;;;;;;51.37;14.86;101684.66;5093953;28;20035;-52
2022/08/12 13:06:40;;;;;;;7.07;1.73;;;;;;;51.16;15.25;101689.84;5092040;28;20051;-51
2022/08/12 13:09:06;;;;;;;5.38;1.85;;;;;;;50.69;15.81;101679.25;5091154;28;20044;-48
2022/08/12 13:11:32;;;;;;;7.88;1.67;;;;;;;50.78;16.22;101676.53;5096501;28;20089;-49
2022/08/12 13:13:58;;;;;;;2.88;1.65;;;;;;;51.06;16.09;101676.81;5092494;28;20056;-49